Time;durP1;ratioP1;P1;durP2;ratioP2;P2;SDS_P1;SDS_P2;PMS_P1;PMS_P2;Temp;Humidity;BMP_temperature;BMP_pressure;BME280_temperature;BME280_humidity;BME280_pressure;Samples;Min_cycle;Max_cycle;Signal;HPM_P1;HPM_P2
2022/06/14 00:03:08;;;;;;;1.60;0.50;;;10.80;1.40;;;12.05;100.00;95890.06;620002;226;32392;-76
2022/06/14 00:05:52;;;;;;;1.00;0.90;;;10.80;1.40;;;12.06;100.00;95889.28;648027;212;31519;-76
2022/06/14 00:08:34;;;;;;;1.30;1.12;;;10.90;1.40;;;12.12;100.00;95886.69;646320;216;31544;-77
2022/06/14 00:11:17;;;;;;;0.60;0.60;;;10.90;1.40;;;12.18;100.00;95892.70;647164;212;31518;-76
2022/06/14 00:14:00;;;;;;;0.90;0.80;;;10.90;1.40;;;12.31;100.00;95895.34;647137;216;31516;-76
2022/06/14 00:16:44;;;;;;;0.80;0.80;;;11.00;1.40;;;12.24;100.00;95897.03;646070;216;31524;-77
2022/06/14 00:19:26;;;;;;;1.20;0.73;;;11.00;1.40;;;12.19;100.00;95891.88;647166;213;31487;-76
2022/06/14 00:22:12;;;;;;;0.65;0.65;;;10.90;1.40;;;12.06;100.00;95894.94;647194;213;31614;-76
2022/06/14 00:24:52;;;;;;;1.00;0.80;;;10.80;1.40;;;12.06;100.00;95894.00;646944;216;32177;-77
2022/06/14 00:27:37;;;;;;;1.80;0.90;;;10.80;1.40;;;12.04;100.00;95889.91;646589;216;31505;-76
2022/06/14 00:30:19;;;;;;;1.00;0.60;;;10.90;1.40;;;12.12;100.00;95884.72;648370;216;33300;-76
2022/06/14 00:33:00;;;;;;;1.00;0.77;;;10.90;1.40;;;12.18;100.00;95888.72;647497;212;33115;-77
2022/06/14 00:36:04;;;;;;;2.30;1.73;;;10.90;1.40;;;12.00;100.00;95893.59;648093;212;31578;-76
2022/06/14 00:38:45;;;;;;;1.50;0.80;;;10.80;1.40;;;11.88;100.00;95883.47;621257;226;31850;-76
2022/06/14 00:41:49;;;;;;;0.67;0.57;;;10.70;1.40;;;11.88;100.00;95884.19;644912;216;31474;-76
2022/06/14 00:44:36;;;;;;;0.70;0.70;;;10.70;1.40;;;11.83;100.00;95880.74;648048;216;31486;-76
2022/06/14 00:47:19;;;;;;;2.03;0.80;;;10.60;1.40;;;11.81;100.00;95882.19;646431;212;31859;-76
2022/06/14 00:49:59;;;;;;;1.00;0.47;;;10.60;1.40;;;11.82;100.00;95880.50;648088;216;31579;-76
2022/06/14 00:52:43;;;;;;;1.15;0.80;;;10.60;1.40;;;11.86;100.00;95880.70;639971;212;31830;-76
2022/06/14 00:55:37;;;;;;;0.60;0.50;;;10.60;1.40;;;11.75;100.00;95879.13;646503;216;32038;-76
2022/06/14 00:58:20;;;;;;;0.80;0.60;;;10.60;1.40;;;11.69;100.00;95879.17;648045;216;36131;-76
2022/06/14 01:01:08;;;;;;;0.50;0.50;;;10.50;1.40;;;11.63;100.00;95875.91;648282;216;42107;-77
2022/06/14 01:03:59;;;;;;;1.50;1.40;;;10.40;1.40;;;11.62;100.00;95876.91;647111;212;31858;-76
2022/06/14 01:06:50;;;;;;;1.70;0.80;;;10.30;1.40;;;11.50;100.00;95876.78;646408;216;31472;-77
2022/06/14 01:09:50;;;;;;;0.68;0.50;;;10.20;1.40;;;11.60;100.00;95876.14;644574;216;32701;-75
2022/06/14 01:12:35;;;;;;;0.70;0.50;;;10.30;1.40;;;11.75;100.00;95874.08;619371;226;31877;-78
2022/06/14 01:15:25;;;;;;;0.60;0.60;;;10.40;1.40;;;11.48;100.00;95875.36;647250;216;31512;-76
2022/06/14 01:18:06;;;;;;;0.77;0.77;;;10.20;1.40;;;11.55;100.00;95874.76;648060;216;31547;-76
2022/06/14 01:20:50;;;;;;;1.10;0.47;;;10.20;1.40;;;11.41;100.00;95870.22;646233;215;31595;-76
2022/06/14 01:23:35;;;;;;;2.00;1.00;;;10.20;1.40;;;11.36;100.00;95866.07;645484;216;42718;-76
2022/06/14 01:26:22;;;;;;;1.40;0.60;;;10.10;1.40;;;11.34;100.00;95867.60;601515;233;32375;-76
2022/06/14 01:29:09;;;;;;;2.00;0.70;;;10.10;1.40;;;11.32;100.00;95863.23;619616;226;31854;-76
2022/06/14 01:31:52;;;;;;;0.60;0.60;;;10.00;1.40;;;11.25;100.00;95861.85;647579;212;31816;-77
2022/06/14 01:35:57;;;;;;;0.73;0.70;;;10.00;1.40;;;11.15;100.00;95859.22;647061;216;42192;-76
2022/06/14 01:38:39;;;;;;;0.83;0.80;;;10.00;1.40;;;11.11;100.00;95856.47;646648;216;42143;-77
2022/06/14 01:41:33;;;;;;;0.50;0.40;;;10.00;1.40;;;11.07;100.00;95850.95;641972;216;31541;-76
2022/06/14 01:44:45;;;;;;;0.83;0.70;;;10.00;1.40;;;11.06;100.00;95857.00;646255;216;42687;-77
2022/06/14 01:47:34;;;;;;;0.70;0.50;;;9.90;1.40;;;11.01;100.00;95857.46;647017;216;42094;-77
2022/06/14 01:53:48;;;;;;;0.70;0.70;;;9.90;1.40;;;10.98;100.00;95854.09;623509;222;42458;-77
2022/06/14 01:56:55;;;;;;;1.80;0.80;;;9.90;1.40;;;10.97;100.00;95853.51;647308;212;31606;-77
2022/06/14 01:59:49;;;;;;;0.73;0.70;;;9.70;1.40;;;10.81;100.00;95858.52;646678;216;31500;-76
2022/06/14 02:02:48;;;;;;;0.60;0.50;;;9.60;1.40;;;10.86;100.00;95861.05;647356;212;31587;-77
2022/06/14 02:05:29;;;;;;;2.20;1.03;;;9.60;1.40;;;10.76;100.00;95857.76;620493;226;31865;-76
2022/06/14 02:08:16;;;;;;;1.40;1.20;;;9.50;1.40;;;10.64;100.00;95853.66;646389;216;31568;-78
2022/06/14 02:13:49;;;;;;;1.40;0.80;;;9.50;1.40;;;10.64;100.00;95854.05;646155;216;31536;-75
2022/06/14 02:16:32;;;;;;;0.70;0.60;;;9.50;1.40;;;10.58;100.00;95854.32;646959;216;42287;-77
2022/06/14 02:19:30;;;;;;;0.60;0.40;;;9.40;1.40;;;10.67;100.00;95852.80;647202;216;31513;-76
2022/06/14 02:22:15;;;;;;;1.10;0.80;;;9.40;1.40;;;10.47;100.00;95850.37;647731;216;31570;-75
2022/06/14 02:25:08;;;;;;;1.30;0.70;;;9.40;1.40;;;10.41;100.00;95848.88;646549;212;31488;-76
2022/06/14 02:28:08;;;;;;;0.93;0.82;;;9.20;1.40;;;10.23;100.00;95851.55;647629;212;31633;-76
2022/06/14 02:30:59;;;;;;;1.90;1.00;;;9.00;1.40;;;10.28;100.00;95861.02;642869;218;42177;-76
2022/06/14 02:35:57;;;;;;;0.68;0.68;;;9.00;1.40;;;10.23;100.00;95852.30;646876;216;31562;-75
2022/06/14 02:38:40;;;;;;;0.50;0.50;;;9.10;1.40;;;10.17;100.00;95855.47;646915;216;31486;-75
2022/06/14 02:41:34;;;;;;;0.50;0.50;;;9.10;1.40;;;10.09;100.00;95850.06;647985;216;31925;-76
2022/06/14 02:44:35;;;;;;;0.50;0.40;;;8.90;1.40;;;10.07;100.00;95847.16;645714;216;31632;-75
2022/06/14 02:47:41;;;;;;;0.80;0.80;;;8.90;1.40;;;10.06;100.00;95849.02;646718;212;31569;-77
2022/06/14 02:50:33;;;;;;;0.80;0.80;;;8.90;1.40;;;10.08;100.00;95845.86;647324;216;31639;-76
2022/06/14 02:53:16;;;;;;;0.80;0.80;;;9.00;1.40;;;10.09;100.00;95850.28;637851;216;31744;-76
2022/06/14 02:56:08;;;;;;;0.50;0.40;;;9.00;1.40;;;10.14;100.00;95848.84;647809;216;31532;-76
2022/06/14 02:58:59;;;;;;;0.50;0.50;;;9.00;1.40;;;10.02;100.00;95849.09;646083;216;31566;-76
2022/06/14 03:04:23;;;;;;;1.20;0.80;;;8.90;1.40;;;10.01;100.00;95843.64;647075;216;31483;-76
2022/06/14 03:07:07;;;;;;;0.80;0.70;;;8.90;1.40;;;10.02;100.00;95844.48;647102;212;31497;-76
2022/06/14 03:09:51;;;;;;;0.50;0.50;;;8.90;1.40;;;9.99;100.00;95845.23;647013;216;31497;-75
2022/06/14 03:12:50;;;;;;;0.40;0.30;;;8.80;1.40;;;9.97;100.00;95842.23;618420;222;32097;-75
2022/06/14 03:15:49;;;;;;;0.80;0.70;;;8.80;1.40;;;10.06;100.00;95851.84;646124;216;31653;-75
2022/06/14 03:18:36;;;;;;;1.80;1.13;;;8.80;1.40;;;9.95;100.00;95849.34;646801;216;31502;-75
2022/06/14 03:21:20;;;;;;;1.90;1.07;;;8.80;1.40;;;9.90;100.00;95850.98;647474;216;31479;-76
2022/06/14 03:24:08;;;;;;;1.13;0.80;;;8.80;1.40;;;9.82;100.00;95846.88;647159;216;32042;-75
2022/06/14 03:27:01;;;;;;;1.77;0.68;;;8.70;1.40;;;9.83;100.00;95852.34;646912;216;31501;-76
2022/06/14 03:29:50;;;;;;;1.30;0.50;;;8.70;1.40;;;9.79;100.00;95855.27;645875;216;31505;-74
2022/06/14 03:32:38;;;;;;;0.53;0.50;;;8.70;1.40;;;9.89;100.00;95853.71;646127;216;31559;-75
2022/06/14 03:35:57;;;;;;;0.70;0.60;;;8.80;1.40;;;9.85;100.00;95850.38;646361;216;31587;-77
2022/06/14 03:38:49;;;;;;;1.30;0.80;;;8.80;1.40;;;9.86;100.00;95847.30;647035;216;31486;-75
2022/06/14 03:41:37;;;;;;;0.40;0.30;;;8.80;1.40;;;9.89;100.00;95850.73;647673;212;31506;-76
2022/06/14 03:44:25;;;;;;;0.80;0.60;;;8.80;1.40;;;9.95;100.00;95846.09;644638;216;32596;-75
2022/06/14 03:47:19;;;;;;;0.80;0.50;;;8.90;1.40;;;10.03;100.00;95851.52;647825;212;31635;-75
2022/06/14 03:50:01;;;;;;;3.10;0.60;;;9.00;1.40;;;10.11;100.00;95858.00;647458;216;31654;-75
2022/06/14 03:52:53;;;;;;;0.50;0.40;;;9.10;1.40;;;10.21;100.00;95850.36;646396;212;33292;-75
2022/06/14 03:55:43;;;;;;;0.80;0.50;;;9.10;1.40;;;10.29;100.00;95855.37;646578;216;31675;-75
2022/06/14 04:01:02;;;;;;;1.00;0.90;;;9.30;1.40;;;10.53;100.00;95856.45;645447;216;31481;-75
2022/06/14 04:04:27;;;;;;;0.80;0.67;;;9.40;1.40;;;10.61;100.00;95858.38;642930;216;31565;-76
2022/06/14 04:07:19;;;;;;;0.80;0.80;;;9.50;1.40;;;10.68;100.00;95861.08;646095;216;31533;-75
2022/06/14 04:10:25;;;;;;;2.90;1.10;;;9.60;1.40;;;10.72;100.00;95861.88;647026;216;31524;-76
2022/06/14 04:15:59;;;;;;;0.52;0.50;;;9.50;1.40;;;10.67;100.00;95863.05;646014;216;31513;-76
2022/06/14 04:18:50;;;;;;;2.20;1.00;;;9.50;1.40;;;10.71;100.00;95859.89;620158;226;32288;-75
2022/06/14 04:24:27;;;;;;;1.10;0.80;;;9.80;1.40;;;10.83;100.00;95857.72;646198;212;31521;-76
2022/06/14 04:27:12;;;;;;;1.90;0.70;;;9.70;1.40;;;10.85;100.00;95852.64;647221;212;32125;-76
2022/06/14 04:30:12;;;;;;;0.70;0.70;;;9.70;1.40;;;10.89;100.00;95855.39;647215;212;31523;-76
2022/06/14 04:33:01;;;;;;;1.30;0.80;;;9.70;1.40;;;10.99;100.00;95858.91;647169;216;31556;-76
2022/06/14 04:36:01;;;;;;;0.77;0.77;;;9.80;1.40;;;11.00;100.00;95855.45;647573;212;31600;-76
2022/06/14 04:38:44;;;;;;;1.60;0.70;;;9.90;1.40;;;11.08;100.00;95856.52;646739;216;32125;-77
2022/06/14 04:41:33;;;;;;;1.30;0.70;;;10.10;1.40;;;11.25;100.00;95853.48;648322;216;32259;-76
2022/06/14 04:44:21;;;;;;;1.10;0.70;;;10.20;1.40;;;11.39;100.00;95857.98;618845;222;31841;-76
2022/06/14 04:47:05;;;;;;;1.10;0.90;;;10.30;1.40;;;11.51;100.00;95861.95;619381;226;31893;-76
2022/06/14 04:50:00;;;;;;;0.63;0.63;;;10.40;1.40;;;11.60;100.00;95860.55;620122;226;42492;-77
2022/06/14 04:52:48;;;;;;;2.50;1.20;;;10.40;1.40;;;11.70;100.00;95865.84;646456;216;31494;-76
2022/06/14 04:55:36;;;;;;;1.40;1.10;;;10.50;1.40;;;11.77;100.00;95865.72;632860;222;42360;-78
2022/06/14 04:58:21;;;;;;;1.20;1.10;;;10.50;1.40;;;11.84;100.00;95865.03;647203;212;42126;-76
2022/06/14 05:01:02;;;;;;;1.70;0.90;;;10.70;1.40;;;12.04;100.00;95865.89;644270;212;31780;-74
2022/06/14 05:03:51;;;;;;;1.40;1.30;;;10.90;1.40;;;12.31;100.00;95864.35;642448;219;31608;-73
2022/06/14 05:06:40;;;;;;;0.80;0.80;;;11.20;1.40;;;12.49;100.00;95862.77;647115;216;31505;-73
2022/06/14 05:09:24;;;;;;;1.20;1.10;;;11.30;1.40;;;12.60;100.00;95860.23;646731;216;31562;-73
2022/06/14 05:12:14;;;;;;;0.90;0.90;;;11.50;1.40;;;12.72;100.00;95859.72;650040;213;31579;-73
2022/06/14 05:14:56;;;;;;;3.40;1.50;;;11.70;1.40;;;12.91;100.00;95855.91;645990;212;32039;-73
2022/06/14 05:17:57;;;;;;;2.30;1.10;;;11.80;1.40;;;13.02;100.00;95857.03;645199;216;31673;-73
2022/06/14 05:20:46;;;;;;;1.40;1.30;;;11.90;1.40;;;13.20;100.00;95857.20;649459;216;31650;-73
2022/06/14 05:23:37;;;;;;;1.50;1.37;;;12.10;1.40;;;13.30;100.00;95859.10;649426;212;31540;-73
2022/06/14 05:26:21;;;;;;;1.33;1.23;;;12.30;1.40;;;13.40;100.00;95860.13;646758;216;31555;-73
2022/06/14 05:35:54;;;;;;;1.90;1.35;;;12.80;1.40;;;13.91;100.00;95867.02;646842;216;31550;-80
2022/06/14 05:38:54;;;;;;;1.40;1.00;;;12.90;1.40;;;14.06;100.00;95868.38;647318;216;32412;-76
2022/06/14 05:41:39;;;;;;;2.10;1.77;;;13.00;1.40;;;14.18;100.00;95871.39;647039;212;31538;-75
2022/06/14 05:44:30;;;;;;;2.20;1.65;;;13.10;1.40;;;14.29;100.00;95870.12;647061;216;33458;-76
2022/06/14 05:47:18;;;;;;;1.73;1.60;;;13.20;1.40;;;14.29;100.00;95868.92;651068;212;32735;-78
2022/06/14 05:50:10;;;;;;;3.00;1.62;;;12.90;1.40;;;14.22;100.00;95865.09;652938;216;39123;-76
2022/06/14 05:52:56;;;;;;;1.90;1.80;;;12.60;1.40;;;14.16;100.00;95864.77;638044;212;32319;-71
2022/06/14 05:55:59;;;;;;;1.80;1.70;;;12.50;1.40;;;14.21;100.00;95868.33;621103;226;31911;-71
2022/06/14 05:58:42;;;;;;;1.62;1.08;;;12.50;1.40;;;14.21;100.00;95871.02;649215;212;38358;-71
2022/06/14 06:01:26;;;;;;;2.70;1.83;;;12.70;1.40;;;14.37;100.00;95883.06;647642;212;31516;-70
2022/06/14 06:06:44;;;;;;;1.30;1.20;;;12.80;1.40;;;14.28;100.00;95887.67;647251;216;42140;-71
2022/06/14 06:09:27;;;;;;;2.42;1.08;;;13.00;1.40;;;14.49;100.00;95887.38;646507;216;38947;-71
2022/06/14 06:12:12;;;;;;;1.70;1.50;;;13.50;1.40;;;14.52;100.00;95890.15;648930;212;31566;-74
2022/06/14 06:14:54;;;;;;;1.80;1.40;;;13.60;1.40;;;14.60;100.00;95887.25;646405;216;42157;-74
2022/06/14 06:20:29;;;;;;;1.40;1.27;;;13.90;1.40;;;14.94;100.00;95892.58;618056;226;32181;-74
2022/06/14 06:23:16;;;;;;;1.58;1.10;;;14.60;1.40;;;15.08;100.00;95891.06;647802;216;42787;-74
2022/06/14 06:25:58;;;;;;;1.50;1.20;;;14.80;1.40;;;15.28;100.00;95891.61;647199;216;42184;-74
2022/06/14 06:28:40;;;;;;;3.37;1.17;;;15.10;1.40;;;15.30;100.00;95895.83;646240;216;32327;-74
2022/06/14 06:31:22;;;;;;;2.67;1.40;;;15.10;1.40;;;15.60;100.00;95895.19;647352;212;31985;-75
2022/06/14 06:36:04;;;;;;;1.70;1.00;;;15.40;1.40;;;15.80;100.00;95903.01;647051;216;31589;-75
2022/06/14 06:49:52;;;;;;;3.05;1.40;;;16.30;1.40;;;17.08;100.00;95896.17;647495;212;31558;-74
2022/06/14 06:52:35;;;;;;;1.30;0.95;;;16.50;1.40;;;17.27;100.00;95897.92;641275;216;32065;-74
2022/06/14 06:55:34;;;;;;;0.90;0.80;;;16.70;1.40;;;17.35;100.00;95894.15;646160;212;31590;-74
2022/06/14 06:58:40;;;;;;;4.22;0.90;;;16.80;1.40;;;17.44;97.72;95890.93;647160;212;31568;-74
2022/06/14 07:01:24;;;;;;;1.80;1.27;;;16.70;1.40;;;17.73;100.00;95890.56;646883;216;31567;-74
2022/06/14 07:05:03;;;;;;;1.33;1.08;;;17.00;1.40;;;17.74;94.95;95889.39;646504;212;31540;-75
2022/06/14 07:07:17;;;;;;;3.87;1.10;;;16.90;1.40;;;17.88;88.74;95894.38;646313;212;31551;-74
2022/06/14 07:10:14;;;;;;;2.50;1.60;;;17.10;1.40;;;17.98;88.84;95897.17;647377;216;31555;-75
2022/06/14 07:13:20;;;;;;;1.50;1.25;;;17.20;1.40;;;18.14;91.30;95900.31;647151;216;31603;-75
2022/06/14 07:16:05;;;;;;;2.50;1.02;;;17.30;1.40;;;18.25;91.82;95896.61;646755;212;42293;-76
2022/06/14 07:18:54;;;;;;;1.20;1.00;;;17.40;1.40;;;18.27;87.71;95899.89;646295;212;31562;-75
2022/06/14 07:21:37;;;;;;;2.90;1.10;;;17.50;1.40;;;18.35;84.13;95893.41;646813;216;31571;-75
2022/06/14 07:24:30;;;;;;;2.30;1.20;;;17.50;1.40;;;18.47;89.48;95894.41;647583;216;31549;-75
2022/06/14 07:27:14;;;;;;;2.50;1.20;;;17.60;1.40;;;18.60;86.02;95890.59;646755;216;31749;-74
2022/06/14 07:30:00;;;;;;;2.80;1.30;;;17.80;1.40;;;18.74;85.60;95886.59;647364;216;31919;-74
2022/06/14 07:32:46;;;;;;;1.37;1.23;;;17.90;1.40;;;19.00;91.65;95890.41;645761;212;31497;-73
2022/06/14 07:35:56;;;;;;;1.70;1.20;;;18.10;1.40;;;18.88;80.62;95893.52;646250;212;31552;-74
2022/06/14 07:38:43;;;;;;;1.00;0.90;;;17.90;1.40;;;19.01;82.32;95900.23;623797;226;23574;-74
2022/06/14 07:41:38;;;;;;;3.67;1.30;;;18.10;1.40;;;18.93;79.13;95895.16;619686;226;31870;-75
2022/06/14 07:44:43;;;;;;;3.40;1.23;;;18.20;1.40;;;18.96;79.99;95894.52;646271;213;31538;-74
2022/06/14 07:47:46;;;;;;;1.73;1.15;;;18.10;1.40;;;18.96;78.57;95885.53;619529;225;31856;-73
2022/06/14 07:50:49;;;;;;;1.27;1.00;;;18.00;1.40;;;19.17;76.46;95882.17;646121;212;31551;-74
2022/06/14 07:53:48;;;;;;;2.92;1.10;;;18.30;1.40;;;19.40;75.86;95883.30;636501;216;32088;-75
2022/06/14 07:59:09;;;;;;;1.93;1.20;;;18.70;1.40;;;19.70;79.38;95879.55;645811;212;31971;-74
2022/06/14 08:01:54;;;;;;;2.90;1.20;;;19.00;1.40;;;20.08;84.12;95874.83;647802;216;31550;-74
2022/06/14 08:04:51;;;;;;;2.95;1.00;;;19.20;1.40;;;20.33;83.78;95879.63;618309;226;31963;-74
2022/06/14 08:07:33;;;;;;;1.65;1.40;;;19.50;1.40;;;19.89;73.16;95873.45;630967;222;32308;-74
2022/06/14 08:10:15;;;;;;;1.20;1.10;;;19.00;1.40;;;20.20;81.41;95877.02;646696;216;31580;-73
2022/06/14 08:12:58;;;;;;;2.62;1.00;;;19.20;1.40;;;20.49;80.68;95879.20;647543;212;31784;-75
2022/06/14 08:15:41;;;;;;;4.70;1.10;;;19.50;1.40;;;20.70;80.05;95878.19;645885;212;31535;-74
2022/06/14 08:18:40;;;;;;;2.20;0.90;;;19.50;1.40;;;20.43;73.19;95884.05;646895;216;31596;-75
2022/06/14 08:21:38;;;;;;;1.40;1.20;;;19.40;1.40;;;20.49;76.44;95884.28;647371;212;31550;-73
2022/06/14 08:24:21;;;;;;;1.48;1.37;;;19.30;1.40;;;20.78;75.58;95877.60;645587;212;42225;-74
2022/06/14 08:27:04;;;;;;;1.77;1.40;;;19.70;1.40;;;21.15;77.22;95881.15;620325;226;42532;-74
2022/06/14 08:29:52;;;;;;;2.33;1.27;;;19.90;1.40;;;21.35;79.08;95883.22;619942;222;42674;-75
2022/06/14 08:32:35;;;;;;;1.30;1.20;;;20.40;1.40;;;21.14;68.25;95876.89;618971;226;32606;-73
2022/06/14 08:35:51;;;;;;;3.00;1.30;;;20.10;1.40;;;21.02;68.82;95873.65;647128;216;31573;-74
2022/06/14 08:38:38;;;;;;;3.17;1.30;;;20.20;1.40;;;21.22;72.41;95873.55;641848;217;31568;-74
2022/06/14 08:46:49;;;;;;;3.03;1.30;;;20.50;1.40;;;21.97;76.95;95877.47;619598;222;31856;-74
2022/06/14 08:49:45;;;;;;;3.90;1.30;;;21.10;1.40;;;21.85;67.53;95872.98;646166;216;31584;-74
2022/06/14 08:53:02;;;;;;;2.80;1.40;;;20.90;1.40;;;21.93;66.48;95871.04;642338;216;31713;-73
2022/06/14 08:56:07;;;;;;;3.00;1.50;;;20.60;1.40;;;22.39;64.75;95867.20;646416;216;32090;-74
2022/06/14 08:59:13;;;;;;;1.27;1.08;;;21.00;1.40;;;22.16;69.26;95866.02;647853;216;31540;-75
2022/06/14 09:02:16;;;;;;;2.70;1.40;;;21.20;1.40;;;22.18;63.31;95864.30;647037;216;32055;-76
2022/06/14 09:08:12;;;;;;;3.92;1.10;;;21.60;1.40;;;23.21;71.12;95861.70;646815;212;33819;-75
2022/06/14 09:11:04;;;;;;;3.25;1.45;;;22.30;1.40;;;22.85;62.99;95860.47;645821;212;31535;-75
2022/06/14 09:14:04;;;;;;;2.65;1.50;;;22.00;1.40;;;23.47;64.32;95863.66;647532;213;31582;-74
2022/06/14 09:17:01;;;;;;;1.20;1.10;;;22.20;1.40;;;23.81;68.08;95859.04;646627;216;31611;-75
2022/06/14 09:19:52;;;;;;;2.60;1.40;;;22.80;1.40;;;24.27;60.58;95861.34;647278;216;31639;-74
2022/06/14 09:22:35;;;;;;;2.22;1.40;;;23.20;1.40;;;24.30;64.10;95852.61;647216;212;31514;-74
2022/06/14 09:25:28;;;;;;;3.50;1.45;;;23.20;1.40;;;25.10;64.89;95847.48;645719;216;31529;-75
2022/06/14 09:28:26;;;;;;;2.60;1.20;;;24.00;1.40;;;26.84;59.25;95848.59;646787;212;31552;-74
2022/06/14 09:31:18;;;;;;;3.72;1.33;;;28.00;1.40;;;26.85;50.18;95845.00;645679;212;31510;-75
2022/06/14 09:36:18;;;;;;;3.00;1.57;;;29.40;1.40;;;29.01;47.19;95841.30;647004;216;31598;-76
2022/06/14 09:39:17;;;;;;;1.67;1.20;;;29.70;1.40;;;29.63;52.56;95843.12;619224;226;32006;-74
2022/06/14 09:45:06;;;;;;;2.65;1.70;;;29.90;1.40;;;31.48;46.28;95833.98;645816;212;31763;-74
2022/06/14 09:48:11;;;;;;;3.00;1.60;;;29.60;1.40;;;30.53;48.96;95834.92;647332;212;31558;-74
2022/06/14 09:51:18;;;;;;;2.80;1.42;;;29.30;1.40;;;31.61;46.56;95835.15;646087;216;31731;-74
2022/06/14 09:56:52;;;;;;;3.10;1.40;;;29.30;1.40;;;31.99;47.90;95837.84;646538;216;31563;-75
2022/06/14 09:59:39;;;;;;;2.70;1.45;;;30.10;1.40;;;33.20;41.45;95832.24;646479;216;31554;-75
2022/06/14 10:02:38;;;;;;;3.97;1.50;;;30.70;1.40;;;32.16;47.14;95830.91;646828;216;31537;-74
2022/06/14 10:05:53;;;;;;;2.45;1.27;;;30.20;1.40;;;32.53;42.36;95828.95;647700;216;31544;-75
2022/06/14 10:08:44;;;;;;;5.20;2.10;;;30.00;1.40;;;30.60;42.66;95826.30;618975;222;31984;-75
2022/06/14 10:14:42;;;;;;;3.28;1.55;;;30.00;1.40;;;33.16;43.07;95827.39;647680;216;31604;-75
2022/06/14 10:17:46;;;;;;;3.30;1.60;;;30.20;1.40;;;33.10;38.82;95821.22;646619;216;31717;-74
2022/06/14 10:20:40;;;;;;;3.60;2.00;;;29.90;1.40;;;29.89;40.83;95828.14;647769;216;31547;-74
2022/06/14 10:24:09;;;;;;;2.25;1.60;;;28.30;1.40;;;34.00;37.78;95813.11;647593;216;32105;-75
2022/06/14 10:29:51;;;;;;;2.30;1.80;;;29.80;1.40;;;32.92;42.92;95816.70;646889;212;31562;-74
2022/06/14 10:32:56;;;;;;;2.03;1.70;;;29.50;1.40;;;34.48;36.59;95809.24;646616;216;31597;-75
2022/06/14 10:35:54;;;;;;;3.00;1.70;;;29.40;1.40;;;34.18;38.68;95811.75;647042;216;31804;-74
2022/06/14 10:38:54;;;;;;;4.60;1.90;;;30.30;1.40;;;35.24;40.45;95808.86;646551;216;42171;-74
2022/06/14 10:41:42;;;;;;;3.97;2.00;;;30.70;1.40;;;34.57;37.91;95809.20;647106;216;42223;-75
2022/06/14 10:44:31;;;;;;;4.80;1.60;;;29.80;1.40;;;34.94;35.40;95812.93;647377;216;42909;-75
2022/06/14 10:47:28;;;;;;;2.45;1.33;;;29.00;1.40;;;33.67;35.36;95809.73;647472;216;31630;-75
2022/06/14 10:50:50;;;;;;;4.75;1.33;;;29.30;1.40;;;32.48;35.25;95817.44;646943;212;31555;-77
2022/06/14 10:53:50;;;;;;;1.85;1.30;;;28.70;1.40;;;31.94;39.87;95806.91;646429;216;31744;-75
2022/06/14 10:56:59;;;;;;;2.60;1.52;;;28.40;1.40;;;31.82;37.63;95811.23;646446;216;31601;-77
2022/06/14 10:59:52;;;;;;;1.90;1.40;;;28.60;1.40;;;34.98;34.83;95802.01;645626;216;31919;-76
2022/06/14 11:02:45;;;;;;;2.30;1.60;;;29.20;1.40;;;36.31;35.87;95796.70;619866;226;31971;-74
2022/06/14 11:05:41;;;;;;;1.73;1.40;;;29.70;1.40;;;35.14;37.71;95798.64;646720;212;31619;-73
2022/06/14 11:08:40;;;;;;;4.28;2.10;;;27.90;1.40;;;33.24;36.51;95808.50;619359;222;31894;-72
2022/06/14 11:11:48;;;;;;;2.15;1.40;;;26.50;1.40;;;32.12;39.31;95804.97;647259;212;31851;-74
2022/06/14 11:14:55;;;;;;;2.37;1.77;;;26.70;1.40;;;30.37;39.71;95811.16;618720;226;31993;-74
2022/06/14 11:17:42;;;;;;;3.20;1.70;;;26.40;1.40;;;29.17;45.00;95815.42;619271;225;32442;-74
2022/06/14 11:20:47;;;;;;;4.05;2.03;;;26.00;1.40;;;30.44;39.14;95803.85;647398;212;31748;-76
2022/06/14 11:23:32;;;;;;;2.85;1.67;;;27.90;1.40;;;31.21;38.89;95801.33;646763;212;31603;-76
2022/06/14 11:26:17;;;;;;;1.30;1.20;;;27.40;1.40;;;31.54;36.46;95795.02;647023;216;31639;-76
2022/06/14 11:31:40;;;;;;;2.40;2.10;;;29.00;1.40;;;34.94;35.42;95780.65;646640;216;31618;-76
2022/06/14 11:36:16;;;;;;;2.75;1.60;;;28.70;1.40;;;36.15;32.23;95780.83;619146;222;32119;-77
2022/06/14 11:41:46;;;;;;;2.00;1.60;;;29.60;1.40;;;35.73;30.98;95775.05;646782;212;31613;-76
2022/06/14 11:47:22;;;;;;;3.00;1.60;;;29.00;1.40;;;34.65;37.33;95769.28;646259;214;42304;-76
2022/06/14 11:50:27;;;;;;;2.90;1.80;;;28.60;1.40;;;37.53;29.29;95767.19;618699;222;31924;-75
2022/06/14 11:56:12;;;;;;;2.62;1.50;;;29.00;1.40;;;33.51;33.05;95769.20;646216;216;44388;-76
2022/06/14 11:59:24;;;;;;;1.75;1.65;;;28.10;1.40;;;36.05;31.64;95758.75;618422;226;42674;-76
2022/06/14 12:02:21;;;;;;;2.15;1.62;;;29.40;1.40;;;37.41;31.35;95751.38;646452;216;31564;-76
2022/06/14 12:05:08;;;;;;;2.70;1.48;;;29.10;1.40;;;36.93;31.88;95753.20;646984;212;31559;-76
2022/06/14 12:13:47;;;;;;;1.40;1.23;;;28.70;1.40;;;34.13;35.95;95752.77;619834;222;31956;-77
2022/06/14 12:16:34;;;;;;;1.70;1.50;;;28.40;1.40;;;35.86;32.33;95748.83;646773;216;31698;-76
2022/06/14 12:19:25;;;;;;;1.70;1.30;;;28.70;1.40;;;35.27;32.51;95754.44;646921;216;31597;-76
2022/06/14 12:28:34;;;;;;;1.60;1.50;;;28.70;1.40;;;37.35;30.52;95749.08;646748;212;31556;-76
2022/06/14 12:31:21;;;;;;;2.90;1.50;;;28.60;1.40;;;37.42;29.48;95750.33;646468;212;32169;-75
2022/06/14 12:36:09;;;;;;;1.85;1.70;;;28.30;1.40;;;37.73;30.92;95749.83;647222;212;32343;-76
2022/06/14 12:38:54;;;;;;;3.37;1.50;;;28.80;1.40;;;36.81;31.94;95747.56;637359;221;35816;-76
2022/06/14 12:41:36;;;;;;;1.58;1.40;;;28.70;1.40;;;38.41;31.02;95739.34;645895;212;31576;-76
2022/06/14 12:44:24;;;;;;;3.60;1.60;;;29.30;1.40;;;37.52;30.75;95744.35;647218;212;43083;-76
2022/06/14 12:47:06;;;;;;;2.67;1.30;;;29.10;1.40;;;35.96;29.43;95733.27;619393;222;31962;-78
2022/06/14 12:49:48;;;;;;;2.80;1.60;;;28.50;1.40;;;35.71;30.48;95733.91;646330;212;31627;-76
2022/06/14 12:52:38;;;;;;;2.50;1.80;;;28.20;1.40;;;35.24;30.44;95735.11;641718;216;32357;-75
2022/06/14 12:55:25;;;;;;;2.40;1.40;;;28.10;1.40;;;34.75;32.26;95731.54;646080;216;31642;-77
2022/06/14 12:58:07;;;;;;;3.40;1.60;;;28.30;1.40;;;35.27;31.60;95726.28;646241;216;32137;-76
2022/06/14 13:00:56;;;;;;;2.83;1.70;;;28.50;1.40;;;35.47;28.83;95724.55;647711;216;31553;-76
2022/06/14 13:04:00;;;;;;;2.15;1.42;;;28.00;1.40;;;35.17;30.17;95725.56;618472;225;32045;-77
2022/06/14 13:07:23;;;;;;;2.72;1.40;;;27.90;1.40;;;36.56;29.63;95720.80;619116;222;31985;-76
2022/06/14 13:10:19;;;;;;;3.50;1.42;;;28.80;1.40;;;37.34;29.37;95715.70;646926;216;31646;-75
2022/06/14 13:13:34;;;;;;;3.10;1.33;;;29.60;1.40;;;36.47;29.78;95719.03;618457;226;31943;-77
2022/06/14 13:16:23;;;;;;;3.00;1.48;;;28.20;1.40;;;36.21;29.02;95710.10;646480;216;31777;-76
2022/06/14 13:19:10;;;;;;;1.42;1.30;;;28.20;1.40;;;37.44;30.37;95710.81;646188;216;31654;-75
2022/06/14 13:22:35;;;;;;;3.00;1.75;;;28.90;1.40;;;37.66;27.50;95712.23;646988;216;31561;-78
2022/06/14 13:25:57;;;;;;;2.20;1.50;;;29.40;1.40;;;38.35;28.66;95704.09;647619;216;31679;-77
2022/06/14 13:29:15;;;;;;;2.50;1.45;;;29.40;1.40;;;37.03;28.53;95702.67;618646;222;31933;-76
2022/06/14 13:32:06;;;;;;;1.95;1.60;;;28.60;1.40;;;36.10;28.12;95701.39;647303;216;31546;-77
2022/06/14 13:35:56;;;;;;;2.40;1.60;;;28.70;1.40;;;36.63;30.44;95698.56;642871;217;31592;-76
2022/06/14 13:38:40;;;;;;;4.85;1.58;;;28.20;1.40;;;37.19;30.18;95702.22;646881;212;31535;-76
2022/06/14 13:41:39;;;;;;;3.67;1.73;;;28.60;1.40;;;34.11;32.26;95704.69;618756;222;31908;-76
2022/06/14 13:44:22;;;;;;;2.90;1.70;;;26.90;1.40;;;33.46;33.33;95703.97;645795;212;31554;-76
2022/06/14 13:47:03;;;;;;;1.92;1.50;;;27.50;1.40;;;35.87;30.31;95696.38;647091;212;31634;-76
2022/06/14 13:49:51;;;;;;;2.30;1.40;;;28.60;1.40;;;35.03;32.65;95701.78;646386;216;31679;-74